createdAt,value
2018-04-23T00:01:39.787Z,20.44
2018-04-23T00:04:07.665Z,20.50
2018-04-23T00:06:33.587Z,20.46
2018-04-23T00:08:59.484Z,20.51
2018-04-23T00:11:25.336Z,20.51
2018-04-23T00:13:51.270Z,20.49
2018-04-23T00:16:20.539Z,20.50
2018-04-23T00:18:46.441Z,20.50
2018-04-23T00:21:14.050Z,20.54
2018-04-23T00:23:39.959Z,20.53
2018-04-23T00:26:09.711Z,20.55
2018-04-23T00:28:35.639Z,20.41
2018-04-23T00:31:02.984Z,20.24
2018-04-23T00:33:28.877Z,20.18
2018-04-23T00:35:58.167Z,20.09
2018-04-23T00:38:24.078Z,19.96
2018-04-23T00:40:53.318Z,19.96
2018-04-23T00:43:19.223Z,19.93
2018-04-23T00:45:45.095Z,19.90
2018-04-23T00:48:11.012Z,19.91
2018-04-23T00:50:36.949Z,19.82
2018-04-23T00:53:15.844Z,19.78
2018-04-23T00:55:41.751Z,19.66
2018-04-23T00:58:07.667Z,19.64
2018-04-23T01:00:33.646Z,19.59
2018-04-23T01:02:59.539Z,19.66
2018-04-23T01:05:25.438Z,19.61
2018-04-23T01:07:51.307Z,19.55
2018-04-23T01:10:17.243Z,19.54
2018-04-23T01:12:43.584Z,19.55
2018-04-23T01:15:09.457Z,19.54
2018-04-23T01:17:38.644Z,19.50
2018-04-23T01:20:04.599Z,19.44
2018-04-23T01:22:30.451Z,19.36
2018-04-23T01:24:56.398Z,19.32
2018-04-23T01:27:22.266Z,19.36
2018-04-23T01:29:49.435Z,19.34
2018-04-23T01:32:15.359Z,19.36
2018-04-23T01:34:44.291Z,19.39
2018-04-23T01:37:10.200Z,19.29
2018-04-23T01:39:39.849Z,19.28
2018-04-23T01:42:05.805Z,19.33
2018-04-23T01:44:33.658Z,19.30
2018-04-23T01:46:59.519Z,19.37
2018-04-23T01:49:28.464Z,19.34
2018-04-23T01:51:54.317Z,19.45
2018-04-23T01:54:24.044Z,19.47
2018-04-23T01:56:49.946Z,19.37
2018-04-23T01:59:15.888Z,19.19
2018-04-23T02:01:41.798Z,19.15
2018-04-23T02:04:08.909Z,19.22
2018-04-23T02:06:34.798Z,19.29
2018-04-23T02:09:00.702Z,19.36
2018-04-23T02:11:29.961Z,18.94
2018-04-23T02:13:56.535Z,19.30
2018-04-23T02:16:24.141Z,19.28
2018-04-23T02:18:50.050Z,19.28
2018-04-23T02:21:18.991Z,19.28
2018-04-23T02:23:45.082Z,19.27
2018-04-23T02:26:14.407Z,19.30
2018-04-23T02:28:40.378Z,19.25
2018-04-23T02:31:09.975Z,19.25
2018-04-23T02:33:35.895Z,19.18
2018-04-23T02:36:01.836Z,19.17
2018-04-23T02:38:27.798Z,19.16
2018-04-23T02:40:53.686Z,19.13
2018-04-23T02:43:20.669Z,19.15
2018-04-23T02:45:46.593Z,19.11
2018-04-23T02:48:16.340Z,19.17
2018-04-23T02:50:42.303Z,19.22
2018-04-23T02:53:09.565Z,19.22
2018-04-23T02:55:35.529Z,19.21
2018-04-23T02:58:05.181Z,19.27
2018-04-23T03:00:31.091Z,19.34
2018-04-23T03:02:58.709Z,19.33
2018-04-23T03:05:24.618Z,19.31
2018-04-23T03:07:53.340Z,19.35
2018-04-23T03:10:19.268Z,19.32
2018-04-23T03:12:45.156Z,19.33
2018-04-23T03:15:11.025Z,19.27
2018-04-23T03:17:36.927Z,19.23
2018-04-23T03:20:05.144Z,19.19
2018-04-23T03:22:30.999Z,19.13
2018-04-23T03:25:00.100Z,19.05
2018-04-23T03:27:26.034Z,19.00
2018-04-23T03:29:55.252Z,19.07
2018-04-23T03:32:21.199Z,19.10
2018-04-23T03:34:50.446Z,19.17
2018-04-23T03:37:16.458Z,19.19
2018-04-23T03:39:44.069Z,19.22
2018-04-23T03:42:10.027Z,19.24
2018-04-23T03:44:39.899Z,19.26
2018-04-23T03:47:05.807Z,19.15
2018-04-23T03:49:31.743Z,19.05
2018-04-23T03:51:57.668Z,18.93
2018-04-23T03:54:23.592Z,18.87
2018-04-23T03:56:50.479Z,18.87
2018-04-23T03:59:16.391Z,18.89
2018-04-23T04:01:45.284Z,18.86
2018-04-23T04:04:11.220Z,18.89
2018-04-23T04:06:40.531Z,18.90
2018-04-23T04:09:06.463Z,19.01
2018-04-23T04:11:35.046Z,18.97
2018-04-23T04:14:13.647Z,18.90
2018-04-23T04:16:47.785Z,18.76
2018-04-23T04:19:13.687Z,18.82
2018-04-23T04:21:39.551Z,18.77
2018-04-23T04:24:05.942Z,18.71
2018-04-23T04:26:32.039Z,18.72
2018-04-23T04:28:58.254Z,18.68
2018-04-23T04:31:24.147Z,18.55
2018-04-23T04:33:50.004Z,18.45
2018-04-23T04:36:15.915Z,18.49
2018-04-23T04:38:41.796Z,18.49
2018-04-23T04:41:07.669Z,18.48
2018-04-23T04:43:33.575Z,18.46
2018-04-23T04:45:59.502Z,18.48
2018-04-23T04:48:25.411Z,18.60
2018-04-23T04:50:51.315Z,18.74
2018-04-23T04:53:17.233Z,18.80
2018-04-23T04:55:43.111Z,18.78
2018-04-23T04:58:10.181Z,18.83
2018-04-23T05:00:36.043Z,18.85
2018-04-23T05:03:01.961Z,18.81
2018-04-23T05:05:27.847Z,18.79
2018-04-23T05:07:53.727Z,18.81
2018-04-23T05:10:22.730Z,18.84
2018-04-23T05:12:48.629Z,18.80
2018-04-23T05:15:17.564Z,18.88
2018-04-23T05:17:43.473Z,18.92
2018-04-23T05:20:10.999Z,18.86
2018-04-23T05:22:36.886Z,18.87
2018-04-23T05:25:06.411Z,18.85
2018-04-23T05:27:32.343Z,18.86
2018-04-23T05:30:01.654Z,18.90
2018-04-23T05:32:27.562Z,18.93
2018-04-23T05:34:54.965Z,18.97
2018-04-23T05:37:20.893Z,18.96
2018-04-23T05:39:46.796Z,19.02
2018-04-23T05:42:12.656Z,19.00
2018-04-23T05:44:38.526Z,19.00
2018-04-23T05:47:06.907Z,18.99
2018-04-23T05:49:32.847Z,18.99
2018-04-23T05:52:02.672Z,19.00
2018-04-23T05:54:28.546Z,19.04
2018-04-23T05:56:55.703Z,18.97
2018-04-23T05:59:21.631Z,18.97
2018-04-23T06:01:50.340Z,18.93
2018-04-23T06:04:16.222Z,18.98
2018-04-23T06:06:46.029Z,19.11
2018-04-23T06:09:11.899Z,19.26
2018-04-23T06:11:40.107Z,19.36
2018-04-23T06:14:08.298Z,19.47
2018-04-23T06:16:34.158Z,19.55
2018-04-23T06:19:00.077Z,19.59
2018-04-23T06:21:25.973Z,19.72
2018-04-23T06:23:51.963Z,19.80
2018-04-23T06:26:17.889Z,19.95
2018-04-23T06:28:46.906Z,20.16
2018-04-23T06:31:12.799Z,20.38
2018-04-23T06:33:41.299Z,20.46
2018-04-23T06:36:07.264Z,20.44
2018-04-23T06:38:36.591Z,20.53
2018-04-23T06:41:02.502Z,20.57
2018-04-23T06:43:31.633Z,20.79
2018-04-23T06:45:57.615Z,20.98
2018-04-23T06:48:27.065Z,21.13
2018-04-23T06:50:52.964Z,21.16
2018-04-23T06:53:18.926Z,21.21
2018-04-23T06:55:44.808Z,21.31
2018-04-23T06:58:10.742Z,21.52
2018-04-23T07:00:37.339Z,21.84
2018-04-23T07:03:03.225Z,21.93
2018-04-23T07:05:32.594Z,22.14
2018-04-23T07:07:58.536Z,22.19
2018-04-23T07:10:28.076Z,22.31
2018-04-23T07:12:53.900Z,22.37
2018-04-23T07:15:21.687Z,22.49
2018-04-23T07:17:47.615Z,22.51
2018-04-23T07:20:16.263Z,22.40
2018-04-23T07:22:42.135Z,22.07
2018-04-23T07:25:11.435Z,21.94
2018-04-23T07:27:37.352Z,21.90
2018-04-23T07:30:03.246Z,21.72
2018-04-23T07:32:29.188Z,21.25
2018-04-23T07:34:55.174Z,20.90
2018-04-23T07:37:22.931Z,20.82
2018-04-23T07:39:48.836Z,20.73
2018-04-23T07:42:18.272Z,20.92
2018-04-23T07:44:44.170Z,21.45
2018-04-23T07:47:11.961Z,21.11
2018-04-23T07:49:37.886Z,20.69
2018-04-23T07:52:07.504Z,20.49
2018-04-23T07:54:33.401Z,20.18
2018-04-23T07:57:02.915Z,20.01
2018-04-23T07:59:28.839Z,19.73
2018-04-23T08:01:56.355Z,19.55
2018-04-23T08:04:22.265Z,19.27
2018-04-23T08:06:48.221Z,19.03
2018-04-23T08:09:14.143Z,18.93
2018-04-23T08:11:40.033Z,18.75
2018-04-23T08:14:07.756Z,18.48
2018-04-23T08:16:33.649Z,18.14
2018-04-23T08:19:03.071Z,18.03
2018-04-23T08:21:28.998Z,17.59
2018-04-23T08:23:59.116Z,17.42
2018-04-23T08:26:25.048Z,17.25
2018-04-23T08:28:51.840Z,16.97
2018-04-23T08:31:17.775Z,16.74
2018-04-23T08:33:46.763Z,16.64
2018-04-23T08:36:13.200Z,16.65
2018-04-23T08:38:42.999Z,16.85
2018-04-23T08:41:08.911Z,17.09
2018-04-23T08:43:34.796Z,17.11
2018-04-23T08:46:00.671Z,17.16
2018-04-23T08:48:26.582Z,17.17
2018-04-23T08:50:52.783Z,17.20
2018-04-23T08:53:18.728Z,17.22
2018-04-23T08:55:47.970Z,17.21
2018-04-23T08:58:13.852Z,17.29
2018-04-23T09:00:42.355Z,17.52
2018-04-23T09:03:08.278Z,17.75
2018-04-23T09:05:37.311Z,17.88
2018-04-23T09:08:03.214Z,18.05
2018-04-23T09:10:32.661Z,18.32
2018-04-23T09:12:58.552Z,18.60
2018-04-23T09:15:27.639Z,18.74
2018-04-23T09:17:53.537Z,18.86
2018-04-23T09:20:19.403Z,18.92
2018-04-23T09:22:45.311Z,19.07
2018-04-23T09:25:11.216Z,19.27
2018-04-23T09:27:38.932Z,19.35
2018-04-23T09:30:04.879Z,19.23
2018-04-23T09:32:33.304Z,19.04
2018-04-23T09:34:59.207Z,19.09
2018-04-23T09:37:29.074Z,19.03
2018-04-23T09:39:54.984Z,19.09
2018-04-23T09:42:22.457Z,19.08
2018-04-23T09:44:48.360Z,18.96
2018-04-23T09:47:18.100Z,18.85
2018-04-23T09:49:44.007Z,18.78
2018-04-23T09:52:11.705Z,18.79
2018-04-23T09:54:37.561Z,18.71
2018-04-23T09:57:03.502Z,18.60
2018-04-23T09:59:29.413Z,18.60
2018-04-23T10:01:55.338Z,18.57
2018-04-23T10:04:25.111Z,18.47
2018-04-23T10:06:50.987Z,18.40
2018-04-23T10:09:18.968Z,18.42
2018-04-23T10:11:44.851Z,18.37
2018-04-23T10:14:12.915Z,18.37
2018-04-23T10:16:38.821Z,18.45
2018-04-23T10:19:07.544Z,18.43
2018-04-23T10:21:34.290Z,18.41
2018-04-23T10:24:03.190Z,18.48
2018-04-23T10:26:29.056Z,18.45
2018-04-23T10:28:58.804Z,18.42
2018-04-23T10:31:24.730Z,18.48
2018-04-23T10:33:50.597Z,18.51
2018-04-23T10:36:16.479Z,18.58
2018-04-23T10:38:42.423Z,18.65
2018-04-23T10:41:08.789Z,18.74
2018-04-23T10:43:34.721Z,18.80
2018-04-23T10:46:03.593Z,18.93
2018-04-23T10:48:29.479Z,19.09
2018-04-23T10:50:58.841Z,19.18
2018-04-23T10:53:24.757Z,19.23
2018-04-23T10:55:54.092Z,19.31
2018-04-23T10:58:19.970Z,19.32
2018-04-23T11:00:47.938Z,19.39
2018-04-23T11:03:13.809Z,19.40
2018-04-23T11:05:43.355Z,19.28
2018-04-23T11:08:09.221Z,19.35
2018-04-23T11:10:35.155Z,19.24
2018-04-23T11:13:01.040Z,19.25
2018-04-23T11:15:26.933Z,19.28
2018-04-23T11:17:54.667Z,19.39
2018-04-23T11:20:20.538Z,19.25
2018-04-23T11:22:49.935Z,19.22
2018-04-23T11:25:15.862Z,19.08
2018-04-23T11:27:43.830Z,18.98
2018-04-23T11:30:09.728Z,18.97
2018-04-23T11:32:39.068Z,18.98
2018-04-23T11:35:04.969Z,18.89
2018-04-23T11:37:34.836Z,18.87
2018-04-23T11:40:00.765Z,18.96
2018-04-23T11:42:28.298Z,19.03
2018-04-23T11:44:54.181Z,18.98
2018-04-23T11:47:20.056Z,18.92
2018-04-23T11:49:46.131Z,18.70
2018-04-23T11:52:12.025Z,18.69
2018-04-23T11:54:40.011Z,18.67
2018-04-23T11:57:05.924Z,18.64
2018-04-23T11:59:35.277Z,18.53
2018-04-23T12:02:01.210Z,18.49
2018-04-23T12:04:30.453Z,18.45
2018-04-23T12:06:56.332Z,18.43
2018-04-23T12:09:23.846Z,18.30
2018-04-23T12:11:49.711Z,18.33
2018-04-23T12:14:18.462Z,18.22
2018-04-23T12:16:44.406Z,18.09
2018-04-23T12:19:13.803Z,18.08
2018-04-23T12:21:39.749Z,17.97
2018-04-23T12:24:07.980Z,17.91
2018-04-23T12:26:33.893Z,17.89
2018-04-23T12:28:59.750Z,17.81
2018-04-23T12:31:25.707Z,17.70
2018-04-23T12:33:51.566Z,17.52
2018-04-23T12:36:20.676Z,17.46
2018-04-23T12:38:46.549Z,17.38
2018-04-23T12:41:14.018Z,17.49
2018-04-23T12:43:39.948Z,17.50
2018-04-23T12:46:08.825Z,17.53
2018-04-23T12:48:34.695Z,17.55
2018-04-23T12:51:03.500Z,17.58
2018-04-23T12:53:29.439Z,17.59
2018-04-23T12:55:58.574Z,17.67
2018-04-23T12:58:24.427Z,17.72
2018-04-23T13:00:50.350Z,17.69
2018-04-23T13:03:16.282Z,17.60
2018-04-23T13:05:42.241Z,17.66
2018-04-23T13:08:11.182Z,17.82
2018-04-23T13:10:37.092Z,18.01
2018-04-23T13:13:04.821Z,18.24
2018-04-23T13:15:30.724Z,18.65
2018-04-23T13:18:00.084Z,19.26
2018-04-23T13:20:25.971Z,19.61
2018-04-23T13:22:55.625Z,19.68
2018-04-23T13:25:21.508Z,19.65
2018-04-23T13:27:49.126Z,19.57
2018-04-23T13:30:15.027Z,19.58
2018-04-23T13:32:44.298Z,19.67
2018-04-23T13:35:10.200Z,19.76
2018-04-23T13:37:36.112Z,19.71
2018-04-23T13:40:02.061Z,19.69
2018-04-23T13:42:27.968Z,19.72
2018-04-23T13:44:56.980Z,19.95
2018-04-23T13:47:22.965Z,20.08
2018-04-23T13:49:50.579Z,20.22
2018-04-23T13:52:16.493Z,20.66
2018-04-23T13:54:44.941Z,21.11
2018-04-23T13:57:10.858Z,21.38
2018-04-23T13:59:40.040Z,21.62
2018-04-23T14:02:06.014Z,21.49
2018-04-23T14:04:35.562Z,21.32
2018-04-23T14:07:01.569Z,21.68
2018-04-23T14:09:28.815Z,21.63
2018-04-23T14:11:54.707Z,21.41
2018-04-23T14:14:20.595Z,21.25
2018-04-23T14:16:46.494Z,21.24
2018-04-23T14:19:12.411Z,21.08
2018-04-23T14:21:40.847Z,20.71
2018-04-23T14:24:08.531Z,20.54
2018-04-23T14:26:35.586Z,20.33
2018-04-23T14:29:01.479Z,20.36
2018-04-23T14:31:30.070Z,20.42
2018-04-23T14:33:56.449Z,20.57
2018-04-23T14:36:24.719Z,20.79
2018-04-23T14:38:50.895Z,20.88
2018-04-23T14:41:20.484Z,20.82
2018-04-23T14:43:46.360Z,20.86
2018-04-23T14:46:15.948Z,20.79
2018-04-23T14:48:41.883Z,20.54
2018-04-23T14:51:07.762Z,20.43
2018-04-23T14:53:33.658Z,20.36
2018-04-23T14:55:59.563Z,20.32
2018-04-23T14:58:25.796Z,20.37
2018-04-23T15:00:51.710Z,20.26
2018-04-23T15:03:20.495Z,20.29
2018-04-23T15:05:46.423Z,20.10
2018-04-23T15:08:16.248Z,19.96
2018-04-23T15:10:42.129Z,19.84
2018-04-23T15:13:10.211Z,19.80
2018-04-23T15:15:36.135Z,19.69
2018-04-23T15:18:05.536Z,19.60
2018-04-23T15:20:31.411Z,19.63
2018-04-23T15:22:59.828Z,19.58
2018-04-23T15:25:25.683Z,19.43
2018-04-23T15:27:51.683Z,19.34
2018-04-23T15:30:17.625Z,19.26
2018-04-23T15:32:43.566Z,19.15
2018-04-23T15:35:11.279Z,19.19
2018-04-23T15:37:37.167Z,18.96
2018-04-23T15:40:05.890Z,18.81
2018-04-23T15:42:31.863Z,18.71
2018-04-23T15:45:00.630Z,18.70
2018-04-23T15:47:26.548Z,18.62
2018-04-23T15:49:55.334Z,18.55
2018-04-23T15:52:21.255Z,18.49
2018-04-23T15:54:49.999Z,18.38
2018-04-23T15:57:15.871Z,18.35
2018-04-23T15:59:44.803Z,18.40
2018-04-23T16:02:10.675Z,18.36
2018-04-23T16:04:36.575Z,18.32
2018-04-23T16:07:02.561Z,18.29
2018-04-23T16:09:28.488Z,18.22
2018-04-23T16:11:56.915Z,18.17
2018-04-23T16:14:22.826Z,18.11
2018-04-23T16:16:52.026Z,18.08
2018-04-23T16:19:17.948Z,18.08
2018-04-23T16:21:47.491Z,18.06
2018-04-23T16:24:13.359Z,18.07
2018-04-23T16:26:40.921Z,18.06
2018-04-23T16:29:06.811Z,18.02
2018-04-23T16:31:36.347Z,18.06
2018-04-23T16:34:02.242Z,18.05
2018-04-23T16:36:31.825Z,18.04
2018-04-23T16:38:57.728Z,18.13
2018-04-23T16:41:23.639Z,18.15
2018-04-23T16:43:49.569Z,18.22
2018-04-23T16:46:15.459Z,18.30
2018-04-23T16:48:42.387Z,18.34
2018-04-23T16:51:08.272Z,18.25
2018-04-23T16:53:37.658Z,18.17
2018-04-23T16:56:03.591Z,18.13
2018-04-23T16:58:33.110Z,18.07
2018-04-23T17:00:58.981Z,18.10
2018-04-23T17:03:26.410Z,18.02
2018-04-23T17:05:52.312Z,17.97
2018-04-23T17:08:21.763Z,18.00
2018-04-23T17:10:47.683Z,17.99
2018-04-23T17:13:17.443Z,18.01
2018-04-23T17:15:43.324Z,17.94
2018-04-23T17:18:09.241Z,17.87
2018-04-23T17:20:35.127Z,17.84
2018-04-23T17:23:01.092Z,17.77
2018-04-23T17:25:27.038Z,17.75
2018-04-23T17:27:53.407Z,17.77
2018-04-23T17:30:22.583Z,17.75
2018-04-23T17:32:48.499Z,17.72
2018-04-23T17:35:16.580Z,17.69
2018-04-23T17:37:42.523Z,17.72
2018-04-23T17:40:12.140Z,17.70
2018-04-23T17:42:38.099Z,17.67
2018-04-23T17:45:07.704Z,17.74
2018-04-23T17:47:33.639Z,17.80
2018-04-23T17:50:00.734Z,17.78
2018-04-23T17:52:26.624Z,17.86
2018-04-23T17:54:53.370Z,17.92
2018-04-23T17:57:19.240Z,17.86
2018-04-23T17:59:45.173Z,17.80
2018-04-23T18:02:14.099Z,17.77
2018-04-23T18:04:40.012Z,17.83
2018-04-23T18:07:08.977Z,17.81
2018-04-23T18:09:34.825Z,17.79
2018-04-23T18:12:02.771Z,17.78
2018-04-23T18:14:28.667Z,17.68
2018-04-23T18:16:56.512Z,17.62
2018-04-23T18:19:24.983Z,17.61
2018-04-23T18:21:51.164Z,17.69
2018-04-23T18:24:17.073Z,17.70
2018-04-23T18:26:46.459Z,17.63
2018-04-23T18:29:12.333Z,17.59
2018-04-23T18:31:38.414Z,17.63
2018-04-23T18:34:04.509Z,17.59
2018-04-23T18:36:31.130Z,17.46
2018-04-23T18:38:57.738Z,17.43
2018-04-23T18:41:23.643Z,17.43
2018-04-23T18:43:52.172Z,17.37
2018-04-23T18:46:18.114Z,17.25
2018-04-23T18:48:47.329Z,17.18
2018-04-23T18:51:13.231Z,17.12
2018-04-23T18:53:42.191Z,17.10
2018-04-23T18:56:08.391Z,17.02
2018-04-23T18:58:36.444Z,16.95
2018-04-23T19:01:02.340Z,16.84
2018-04-23T19:03:31.484Z,16.87
2018-04-23T19:05:57.401Z,16.86
2018-04-23T19:08:23.273Z,16.82
2018-04-23T19:10:49.216Z,16.83
2018-04-23T19:13:15.119Z,16.79
2018-04-23T19:15:44.534Z,16.81
2018-04-23T19:18:10.423Z,16.78
2018-04-23T19:20:38.494Z,16.79
2018-04-23T19:23:04.475Z,16.76
2018-04-23T19:25:36.649Z,16.73
2018-04-23T19:28:03.062Z,16.75
2018-04-23T19:30:28.996Z,16.73
2018-04-23T19:32:54.946Z,16.78
2018-04-23T19:35:21.876Z,16.75
2018-04-23T19:37:47.752Z,16.69
2018-04-23T19:40:16.553Z,16.70
2018-04-23T19:42:44.765Z,16.67
2018-04-23T19:45:10.773Z,16.65
2018-04-23T19:47:36.655Z,16.63
2018-04-23T19:50:02.591Z,16.57
2018-04-23T19:52:28.502Z,16.56
2018-04-23T19:54:54.408Z,16.54
2018-04-23T19:57:24.265Z,16.51
2018-04-23T19:59:50.154Z,16.50
2018-04-23T20:02:17.683Z,16.51
2018-04-23T20:04:43.564Z,16.55
2018-04-23T20:07:12.712Z,16.53
2018-04-23T20:09:38.814Z,16.45
2018-04-23T20:12:08.412Z,16.30
2018-04-23T20:14:34.400Z,16.20
2018-04-23T20:17:03.594Z,16.24
2018-04-23T20:19:29.472Z,16.17
2018-04-23T20:21:55.389Z,16.14
2018-04-23T20:24:21.295Z,16.10
2018-04-23T20:26:47.178Z,16.05
2018-04-23T20:29:13.870Z,16.06
2018-04-23T20:31:39.752Z,16.09
2018-04-23T20:34:09.179Z,16.10
2018-04-23T20:36:35.045Z,16.12
2018-04-23T20:39:03.317Z,16.10
2018-04-23T20:41:29.224Z,16.05
2018-04-23T20:43:59.031Z,16.00
2018-04-23T20:46:24.971Z,15.92
2018-04-23T20:48:52.466Z,15.88
2018-04-23T20:51:18.389Z,15.93
2018-04-23T20:53:47.950Z,15.91
2018-04-23T20:56:13.814Z,15.97
2018-04-23T20:58:39.725Z,16.00
2018-04-23T21:01:05.678Z,16.01
2018-04-23T21:03:31.564Z,15.95
2018-04-23T21:05:59.253Z,16.04
2018-04-23T21:08:25.114Z,15.92
2018-04-23T21:10:53.768Z,15.81
2018-04-23T21:13:19.700Z,15.74
2018-04-23T21:15:48.302Z,15.77
2018-04-23T21:18:14.236Z,15.71
2018-04-23T21:20:43.152Z,15.57
2018-04-23T21:23:09.070Z,15.55
2018-04-23T21:25:38.225Z,15.47
2018-04-23T21:28:05.174Z,15.37
2018-04-23T21:30:32.504Z,15.30
2018-04-23T21:32:58.645Z,15.27
2018-04-23T21:35:24.578Z,15.18
2018-04-23T21:37:50.493Z,15.15
2018-04-23T21:40:16.396Z,15.10
2018-04-23T21:42:45.772Z,15.12
2018-04-23T21:45:11.719Z,15.01
2018-04-23T21:47:40.791Z,15.08
2018-04-23T21:50:06.691Z,15.08
2018-04-23T21:52:34.175Z,15.08
2018-04-23T21:55:00.248Z,15.04
2018-04-23T21:57:28.580Z,15.01
2018-04-23T21:59:54.474Z,14.95
2018-04-23T22:02:23.499Z,14.92
2018-04-23T22:04:49.446Z,14.89
2018-04-23T22:07:18.802Z,14.87
2018-04-23T22:09:44.735Z,14.85
2018-04-23T22:12:10.663Z,14.74
2018-04-23T22:14:36.594Z,14.67
2018-04-23T22:17:02.607Z,14.58
2018-04-23T22:19:29.568Z,14.52
2018-04-23T22:21:55.482Z,14.57
2018-04-23T22:24:25.367Z,14.64
2018-04-23T22:26:51.308Z,14.69
2018-04-23T22:29:18.938Z,14.73
2018-04-23T22:31:44.868Z,14.77
2018-04-23T22:34:14.717Z,14.85
2018-04-23T22:36:40.652Z,14.86
2018-04-23T22:39:08.579Z,14.87
2018-04-23T22:41:34.492Z,14.86
2018-04-23T22:44:04.205Z,14.88
2018-04-23T22:46:30.157Z,14.82
2018-04-23T22:48:56.105Z,14.87
2018-04-23T22:51:22.031Z,14.91
2018-04-23T22:53:47.944Z,14.95
2018-04-23T22:56:14.859Z,14.92
2018-04-23T22:58:40.765Z,14.78
2018-04-23T23:01:09.506Z,14.70
2018-04-23T23:03:35.466Z,14.59
2018-04-23T23:06:04.771Z,14.47
2018-04-23T23:08:30.700Z,14.46
2018-04-23T23:10:59.853Z,14.52
2018-04-23T23:13:25.763Z,14.52
2018-04-23T23:15:55.239Z,14.44
2018-04-23T23:18:21.140Z,14.38
2018-04-23T23:20:48.598Z,14.30
2018-04-23T23:23:14.517Z,14.25
2018-04-23T23:25:40.394Z,14.16
2018-04-23T23:28:06.311Z,14.15
2018-04-23T23:30:32.210Z,14.12
2018-04-23T23:33:01.776Z,14.07
2018-04-23T23:35:27.724Z,13.90
2018-04-23T23:37:55.708Z,13.76
2018-04-23T23:40:21.559Z,13.55
2018-04-23T23:42:51.110Z,13.53
2018-04-23T23:45:17.032Z,13.62
2018-04-23T23:47:44.215Z,13.53
2018-04-23T23:50:10.161Z,13.46
2018-04-23T23:52:38.839Z,13.45
2018-04-23T23:55:04.752Z,13.43
2018-04-23T23:57:33.458Z,13.39
2018-04-23T23:59:59.396Z,13.36
